Weather at White House South Lawn Helipad

Public forecast

Using degrees Fahrenheit for public forecast. Weather courtesy of forecast.io.

Closest aviation weather report (METAR) to White House South Lawn Helipad

Closest report is Ronald Reagan Washington National Airport, 2.7 nm (5.0 km) S.

2024/06/13 09:52 (retrieved 44 minutes ago)

KDCA 130952Z 19003KT 10SM FEW140 FEW250 21/17 A3002 RMK AO2 SLP164 T02060172

Closest aviation forecast (TAF) to White House South Lawn Helipad

Closest forecast is Ronald Reagan Washington National Airport, 2.7 nm (5.0 km) S.

2024/06/13 09:00 Ammendment (retrieved 2 hours ago)

TAF AMD KDCA 130859Z 1309/1412 20004KT P6SM FEW060 FEW250 FM131400 19008G15KT P6SM BKN060 FM140200 18005KT P6SM SCT060